Weather observations for the past three days for
Ahoskie, Tri-County Airport
Imperial (Metric)
Date Time (edt) Wind (mph) Vis. (mi.) Weather Sky Cond. Temperature (ºF) Relative Humidity Wind Chill (°F) Heat Index (°F) Pressure Precipitation (in)
Air Dwpt 6 hour altimeter (in) sea level (mb) 1 hr 3 hr 6 hr
Max. Min.
03 21:15 S 5 10.00 Fair CLR 82.6 73.9 75% 89 30 0.0
03 20:55 S 3 10.00 Fair CLR 83.3 73.4 72% 90 29.99 0.0
03 20:35 S 3 10.00 Fair CLR 84 72.9 69% 90 29.97 0.0
03 20:15 S 3 10.00 Fair CLR 84.9 72.5 66% 91 29.96 0.0
03 19:55 S 3 10.00 Fair CLR 85.5 72.7 66% 92 29.95 0.0
03 19:35 S 3 10.00 Fair CLR 86.9 72.9 63% 94 29.95 0.0
03 19:15 S 5 10.00 Fair CLR 88.7 72.7 59% 96 29.95 0.0
03 18:55 S 6 10.00 Fair CLR 90.1 73 57% 98 29.95 0.0
03 18:35 S 6 10.00 Fair CLR 91.4 72.1 53% 99 29.95 0.0
03 18:15 S 7 10.00 Fair CLR 92.3 71.8 51% 100 29.94 0.0
03 17:55 S 8 10.00 Fair CLR 93.2 71.4 49% 101 29.95 0.0
03 17:35 S 8 10.00 Fair CLR 94.1 72.5 50% 103 29.95 0.0
03 17:15 S 7 10.00 Fair CLR 94.5 72.5 49% 103 29.96 0.0
03 16:55 S 8 10.00 NULL NULL 95 72.7 49% 104 29.95 0.0
03 16:15 S 8 10.00 Mostly Cloudy SCT065 BKN085 95.7 72.1 47% 105 29.97 0.0
03 15:55 S 7 10.00 Mostly Cloudy SCT065 BKN075 BKN095 95.7 72.9 48% 105 29.97 0.0
03 15:35 S 7 10.00 Mostly Cloudy SCT055 SCT070 BKN095 95.4 72.5 48% 104 29.98 0.0
03 15:15 SW 8 10.00 Fair CLR 95.2 71.4 46% 103 29.98 0.0
03 14:55 SW 6 10.00 Partly Cloudy SCT085 95.2 72 47% 104 29.99 0.0
03 14:35 S 6 10.00 Partly Cloudy SCT050 SCT085 94.6 73 50% 104 30 0.0
03 14:15 S 5 10.00 Partly Cloudy SCT050 93.6 72.9 51% 103 30 0.0
03 13:55 SW 3 10.00 Fair CLR 94.1 72.5 94.3 73.4 50% 103 30 0.0
03 13:35 S 7 10.00 Fair CLR 93.4 72.1 50% 102 30.01 0.0
03 13:15 S 7 10.00 Fair CLR 92.7 72.5 52% 101 30.02 0.0
03 12:55 S 5 10.00 Fair CLR 91.9 73 54% 101 30.03 0.0
03 12:35 S 7 10.00 Fair CLR 91.4 73.9 57% 101 30.03 0.0
03 12:15 SW 5 10.00 Fair CLR 90.3 74.3 59% 100 30.04 0.0
03 11:55 Calm 10.00 Fair CLR 90 74.3 60% 100 30.04 0.0
03 11:35 SE 6 10.00 Fair CLR 88.7 75.7 66% 100 30.05 0.0
03 11:15 S 5 10.00 Fair CLR 88.3 75.4 66% 99 30.05 0.0
03 10:55 Calm 10.00 Fair CLR 86.5 75 69% 96 30.05 0.0
03 10:35 Calm 10.00 Fair CLR 85.5 74.8 71% 94 30.05 0.0
03 10:15 Calm 10.00 Fair CLR 84.9 75.4 73% 94 30.05 0.0
03 09:55 W 3 10.00 Fair CLR 83.3 75.2 77% 91 30.05 0.0
03 09:35 W 5 10.00 Fair CLR 81.9 74.5 78% 88 30.04 0.0
03 09:15 Calm 10.00 Fair CLR 80.4 74.8 83% 86 30.05 0.0
03 08:55 SW 3 10.00 Fair CLR 78.8 75 88% 82 30.05 0.0
03 08:35 SW 3 10.00 Fair CLR 76.8 75.4 95% 77 30.05 0.0
03 08:15 Calm 10.00 Fair CLR 74.8 74.8 100% 30.05 0.0
03 07:55 Calm 7.00 Fair CLR 73.2 73.2 73.4 69.4 100% 30.06 0.0
03 07:35 Calm 7.00 Fair CLR 71.2 71.2 100% 30.05 0.0
03 07:15 Calm 7.00 Fair CLR 70 70 100% 30.05 0.0
03 06:55 Calm 2.50 Fair CLR 69.6 69.6 100% 30.04 0.0
03 06:35 Calm 5.00 Fair CLR 70.2 70.2 100% 30.03 0.0
03 06:15 Calm 3.00 Fair CLR 70.7 70.7 100% 30.03 0.0
03 05:55 Calm 4.00 Fair CLR 70 70 100% 30.03 0.0
03 05:35 Calm 4.00 Fair CLR 70.3 70.3 100% 30.02 0.0
03 05:15 Calm 3.00 Fair CLR 70.2 70.2 100% 30.02 0.0
03 04:55 Calm 1.50 Sky Obscured VV007 70.5 70.5 100% 30.02 0.0
03 04:35 Calm 5.00 Fair CLR 71.6 71.6 100% 30.02 0.0
03 04:15 Calm 7.00 Fair CLR 71.1 71.1 100% 30.02 0.0
03 03:55 Calm 4.00 Fair CLR 71.6 71.6 100% 30.01 0.0
03 03:35 Calm 4.00 Fair CLR 71.6 71.6 100% 30.02 0.0
03 03:15 Calm 4.00 Fair CLR 71.2 71.2 100% 30.02 0.0
03 02:55 Calm 7.00 Fair CLR 72 72 100% 30.02 0.0
03 02:35 Calm 10.00 Fair CLR 73.4 73.4 100% 30.02 0.0
03 02:15 Calm 10.00 Fair CLR 72.5 72.5 100% 30.03 0.0
03 01:55 Calm 10.00 Fair CLR 73 73 82.6 72.7 100% 30.03 0.0
03 01:35 Calm 10.00 Fair CLR 73.4 73.4 100% 30.03 0.0
03 01:15 Calm 10.00 Fair CLR 73.4 73.4 100% 30.03 0.0
03 00:55 Calm 10.00 Fair CLR 73 73 100% 30.02 0.0
03 00:35 Calm 10.00 Fair CLR 73.6 73.6 100% 30.03 0.0
03 00:15 Calm 10.00 Fair CLR 73.6 73.4 99% 30.04 0.0
02 23:55 Calm 10.00 Fair CLR 74.3 73.6 98% 30.04 0.0
02 23:35 Calm 10.00 Fair CLR 75.6 73 92% 75 30.03 0.0
02 23:10 SW 3 10.00 Fair CLR 76.1 72 87% 77 30.03 0.0
02 22:55 Calm 10.00 Fair CLR 76.3 71.6 86% 77 30.03 0.0
02 22:35 Calm 10.00 Fair CLR 76.5 71.6 85% 77 30.03 0.0
02 22:15 Calm 10.00 Fair CLR 77 71.1 82% 79 30.04 0.0
02 21:55 Calm 10.00 Fair CLR 77 70.9 81% 79 30.04 0.0
02 21:35 Calm 10.00 Fair CLR 77.2 70.7 81% 79 30.05 0.0
02 21:15 Calm 10.00 Fair CLR 79.2 69.8 73% 82 30.05 0.0
02 20:55 Calm 10.00 Fair CLR 79 69.1 72% 82 30.04 0.0
02 20:35 Calm 10.00 Fair CLR 80.6 68.7 67% 84 30.03 0.0
02 20:15 SE 3 10.00 Fair CLR 81.5 67.6 63% 84 30.01 0.0
02 19:55 SE 7 10.00 Fair CLR 82.8 68.4 94.3 82.8 62% 86 30.01 0.0
02 19:35 SE 8 10.00 Fair CLR 84.6 71.6 65% 90 30.03 0.0
02 19:15 SE 3 10.00 Fair CLR 86.4 74.5 68% 95 30.04 0.0
02 18:55 E 6 10.00 Fair CLR 88.2 73.6 62% 96 30.03 0.0
02 18:35 E 5 10.00 Fair CLR 90 71.8 55% 97 30.03 0.0
02 18:15 E 6 10.00 Fair CLR 91.6 72 53% 99 30.01 0.0
02 17:55 NE 9 10.00 Fair CLR 92.3 72.5 53% 101 30.02 0.0
02 17:35 NE 3 10.00 Fair CLR 93.2 71.1 49% 100 30.02 0.0
02 17:15 NE 5 10.00 Partly Cloudy SCT075 SCT090 93.4 71.6 49% 101 30.01 0.0
02 16:55 E 3 10.00 Partly Cloudy SCT075 SCT090 93.9 71.4 48% 102 30 0.0
02 16:35 SE 3 10.00 Fair CLR 93.9 71.1 48% 101 30 0.0
02 16:15 E 5 10.00 Partly Cloudy SCT090 93.6 71.2 48% 101 30.01 0.0
02 15:55 NE 6 10.00 Partly Cloudy SCT070 SCT090 93.7 71.4 48% 101 30.01 0.0
02 15:35 NE 5 10.00 Partly Cloudy SCT060 SCT070 SCT090 92.5 71.8 51% 100 30.02 0.0
02 15:15 NE 8 10.00 Mostly Cloudy SCT060 SCT070 BKN090 93.9 71.4 48% 102 30.03 0.0
02 14:55 E 7 10.00 Partly Cloudy SCT060 93.7 71.2 48% 101 30.03 0.0
02 14:35 NE 6 10.00 Fair CLR 93.4 70.2 47% 100 30.03 0.0
02 14:15 Calm 10.00 Fair CLR 93.2 70.9 48% 100 30.03 0.0
02 13:55 N 6 10.00 Fair CLR 93.4 70.7 93.7 74.7 48% 100 30.04 0.0
02 13:35 E 3 10.00 Fair CLR 92.7 71.1 49% 100 30.04 0.0
02 13:15 N 6 10.00 Fair CLR 92.5 71.1 50% 99 30.04 0.0
02 12:55 N 7 10.00 Fair CLR 91.4 71.4 52% 98 30.04 0.0
02 12:35 N 7 10.00 Fair CLR 91.6 71.2 51% 98 30.04 0.0
02 12:15 N 8 10.00 Fair CLR 91.4 70.9 51% 98 30.05 0.0
02 11:55 N 8 10.00 Fair CLR 91.4 71.1 51% 98 30.06 0.0
02 11:30 N 8 10.00 Fair CLR 90.9 71.8 54% 98 30.06 0.0
02 11:15 N 7 10.00 Fair CLR 89.6 70.7 54% 96 30.06 0.0
02 10:55 N 6 10.00 Fair CLR 88.2 71.4 58% 94 30.06 0.0
02 10:35 NE 6 10.00 Fair CLR 86.9 72.7 63% 94 30.05 0.0
02 10:15 N 5 10.00 Fair CLR 84.9 72.7 67% 91 30.05 0.0
02 09:55 N 5 10.00 Fair CLR 84.2 72.5 68% 90 30.05 0.0
02 09:35 Calm 10.00 Fair CLR 82.9 73.4 73% 89 30.05 0.0
02 09:15 NW 3 10.00 Fair CLR 81.1 73.6 78% 86 30.05 0.0
02 08:55 Calm 10.00 Fair CLR 79.7 73.6 82% 84 30.05 0.0
02 08:35 Calm 10.00 Fair CLR 78.3 74.7 89% 81 30.05 0.0
02 08:15 Calm 10.00 Fair CLR 76.3 76.1 99% 76 30.05 0.0
02 07:55 SW 3 10.00 Fair CLR 74.7 74.7 75.4 71.8 100% 30.05 0.0
02 07:35 Calm 10.00 Fair CLR 73.4 73.4 100% 30.04 0.0
02 07:15 Calm 5.00 Fair CLR 72 72 100% 30.04 0.0
02 06:55 Calm 5.00 Fair CLR 71.8 71.8 100% 30.04 0.0
02 06:35 Calm 7.00 Fair CLR 72.1 72.1 100% 30.04 0.0
02 06:15 Calm 10.00 Fair CLR 72.5 72.5 100% 30.04 0.0
02 05:55 Calm 10.00 Fair CLR 72.3 72.3 100% 30.03 0.0
02 05:35 Calm 10.00 Fair CLR 72.7 72.7 100% 30.03 0.0
02 05:15 Calm 10.00 Fair CLR 72.9 72.9 100% 30.03 0.0
02 04:55 Calm 10.00 Fair CLR 72.9 72.9 100% 30.02 0.0
02 04:35 Calm 10.00 Fair CLR 73.4 73.4 100% 30.02 0.0
02 04:15 Calm 10.00 Fair CLR 73.4 73.4 100% 30.03 0.0
02 03:55 Calm 10.00 Fair CLR 74.3 74.3 100% 30.02 0.0
02 03:35 Calm 10.00 Fair CLR 74.5 74.5 100% 30.02 0.0
02 03:15 Calm 10.00 Fair CLR 74.1 74.1 100% 30.02 0.0
02 02:55 Calm 10.00 Fair CLR 74.7 74.5 99% 30.03 0.0
02 02:35 Calm 10.00 Fair CLR 74.8 74.7 99% 30.03 0.0
02 02:15 Calm 10.00 Fair CLR 75.4 74.5 97% 74 30.04 0.0
02 01:55 Calm 10.00 Fair CLR 75.4 74.7 82 75 98% 74 30.04 0.0
02 01:35 Calm 10.00 Fair CLR 75.7 74.7 96% 75 30.04 0.0
02 01:15 Calm 10.00 Fair CLR 76.5 74.7 94% 77 30.04 0.0
02 00:55 Calm 10.00 Fair CLR 76.5 74.8 95% 77 30.04 0.0
02 00:35 Calm 10.00 Fair CLR 77.2 75 93% 78 30.03 0.0
02 00:15 S 3 10.00 Fair CLR 77.9 74.7 90% 80 30.02 0.0
01 23:55 S 3 10.00 Fair CLR 78.4 74.8 89% 82 30.02 0.0
01 23:35 S 5 10.00 Fair CLR 78.8 75.2 89% 82 30.02 0.0
01 22:55 S 3 10.00 Fair CLR 78.8 75.4 89% 82 30.02 0.0
01 22:35 S 3 10.00 Fair CLR 78.1 75.6 92% 81 30.01 0.0
01 22:15 S 3 10.00 Fair CLR 78.6 75.4 90% 82 30.01 0.0
01 21:55 Calm 10.00 Fair CLR 79 75.4 89% 83 30 0.0
01 21:35 S 5 10.00 Fair CLR 79.3 75.2 87% 84 29.99 0.0
01 21:15 Calm 10.00 Fair CLR 79.3 75 87% 84 29.99 0.0
01 20:55 Calm 10.00 Fair CLR 80.2 74.5 83% 85 29.99 0.0
01 20:35 SE 5 10.00 Fair CLR 79.5 75.2 87% 84 29.98 0.0
01 20:15 Calm 10.00 Fair CLR 79.9 75.2 86% 85 29.98 0.0
01 19:55 Calm 10.00 Fair CLR 82.6 73.8 93.2 82.6 75% 89 29.98 0.0
01 19:35 Calm 10.00 Fair CLR 84.2 73.8 71% 91 29.99 0.0
01 19:15 Calm 10.00 Fair CLR 85.5 73.4 67% 93 29.99 0.0
01 18:55 S 5 10.00 Fair CLR 86.9 72.9 63% 94 29.99 0.0
01 18:35 S 6 10.00 Fair CLR 88.2 72.1 59% 95 29.99 0.0
01 18:15 S 6 10.00 Fair CLR 88.9 72 57% 96 30 0.0
01 17:55 S 8 10.00 Fair CLR 90 72 56% 97 29.99 0.0
01 17:35 S 7 10.00 Fair CLR 90.7 72.5 55% 99 29.99 0.0
01 17:15 S 8 10.00 Fair CLR 91.4 72 53% 99 29.99 0.0
01 16:55 S 7 10.00 Fair CLR 92.1 72.5 53% 100 29.99 0.0
01 16:35 S 8 10.00 Fair CLR 92.3 71.1 50% 99 29.99 0.0
01 16:15 Calm 10.00 Fair CLR 93.2 68.4 44% 98 29.99 0.0
01 15:55 W 7 10.00 Fair CLR 91.2 68.7 48% 96 30 0.0
01 15:35 Calm 10.00 Fair CLR 91.2 67.3 45% 95 30 0.0
01 15:15 S 5 10.00 Partly Cloudy SCT060 92.8 70.3 48% 99 30.01 0.0
01 14:55 NW 5 10.00 Partly Cloudy SCT050 92.8 71.4 50% 100 30.01 0.0
01 14:35 Calm 10.00 Overcast BKN050 OVC070 91.4 70.3 50% 97 30.02 0.0
01 14:15 SW 3 10.00 Mostly Cloudy BKN050 BKN070 91.6 71.8 52% 99 30.02 0.0
01 13:55 Calm 10.00 Mostly Cloudy BKN050 BKN070 91.2 71.1 91.8 74.3 52% 98 30.02 0.0
01 13:35 S 5 10.00 Mostly Cloudy BKN049 BKN060 91 71.6 53% 98 30.02 0.0
01 13:15 Calm 10.00 Mostly Cloudy BKN047 BKN065 90.1 71.6 55% 97 30.03 0.0
01 12:55 SE 3 10.00 Mostly Cloudy BKN047 BKN065 BKN075 89.6 70.9 54% 96 30.04 0.0
01 12:35 S 3 10.00 Partly Cloudy SCT045 90.5 72 55% 98 30.04 0.0
01 12:15 S 6 10.00 Fair CLR 89.6 72.3 57% 97 30.05 0.0
01 11:55 Calm 10.00 Fair CLR 88.5 72.1 58% 96 30.06 0.0
01 11:35 Calm 10.00 Fair CLR 88.3 74.3 63% 97 30.07 0.0
01 11:15 Calm 10.00 Fair CLR 86.4 73.4 65% 94 30.07 0.0
01 10:55 SW 3 10.00 Fair CLR 85.6 72.5 65% 92 30.08 0.0
01 10:35 Calm 10.00 Partly Cloudy SCT070 84.7 72.7 67% 91 30.08 0.0
01 10:15 NW 5 10.00 Partly Cloudy SCT070 84.4 72.7 68% 91 30.08 0.0
01 09:55 Calm 10.00 Fair CLR 83.5 72.7 70% 89 30.08 0.0
01 09:35 W 5 10.00 Fair CLR 82.4 72.3 72% 88 30.08 0.0
01 09:15 W 5 10.00 Fair CLR 81.5 72.7 75% 86 30.07 0.0
01 08:55 W 5 10.00 Fair CLR 79.5 73.2 81% 83 30.08 0.0
01 08:35 SW 3 10.00 Fair CLR 78.4 75.2 90% 82 30.08 0.0
01 08:15 Calm 10.00 Fair CLR 76.3 75.2 96% 76 30.08 0.0
01 07:55 Calm 10.00 Fair CLR 74.3 74.3 74.5 70.7 100% 30.07 0.0
01 07:35 Calm 10.00 Fair CLR 72.1 72.1 100% 30.07 0.0
01 07:15 Calm 5.00 Fair CLR 71.2 71.2 100% 30.06 0.0
01 06:55 Calm 5.00 Fair CLR 71.1 71.1 100% 30.06 0.0
01 06:35 Calm 7.00 Fair CLR 70.9 70.9 100% 30.05 0.0
01 06:15 S 3 7.00 Fair CLR 71.2 71.2 100% 30.05 0.0
01 05:55 Calm 10.00 Fair CLR 72 72 100% 30.05 0.0
01 05:35 Calm 10.00 Partly Cloudy SCT095 72.5 72.5 100% 30.05 0.0
01 05:15 Calm 10.00 Overcast OVC095 72.7 72.7 100% 30.05 0.0
01 04:55 Calm 10.00 Overcast OVC095 72.5 72.5 100% 30.06 0.0
01 04:35 Calm 10.00 Overcast OVC085 72.5 72.5 100% 30.06 0.0
01 04:15 Calm 10.00 Mostly Cloudy BKN085 72 72 100% 30.06 0.0
01 03:55 Calm 10.00 Partly Cloudy SCT085 72.5 72.5 100% 30.06 0.0
01 03:35 Calm 10.00 Fair CLR 72.7 72.7 100% 30.06 0.0
01 03:15 Calm 10.00 Partly Cloudy SCT085 72.5 72.5 100% 30.07 0.0
01 02:55 Calm 10.00 Mostly Cloudy BKN085 73 73 100% 30.07 0.0
01 02:35 Calm 10.00 Fair CLR 73.2 73.2 100% 30.08 0.0
01 02:15 Calm 10.00 Fair CLR 73.8 73.8 100% 30.08 0.0
01 01:55 Calm 10.00 Fair CLR 74.3 74.1 79.9 73.8 99% 30.08 0.0
01 01:35 Calm 10.00 Fair CLR 74.8 74.1 98% 30.09 0.0
01 01:15 S 3 10.00 Fair CLR 74.3 74.3 100% 30.09 0.0
01 00:55 S 3 10.00 Partly Cloudy SCT075 74.3 74.1 99% 30.09 0.0
01 00:35 Calm 10.00 Mostly Cloudy BKN075 75 73.6 95% 73 30.09 0.0
01 00:15 Calm 10.00 Mostly Cloudy SCT065 BKN075 75.2 73.4 94% 74 30.08 0.0
31 23:55 Calm 10.00 Partly Cloudy SCT070 75.4 73.4 94% 74 30.08 0.0
31 23:35 S 3 10.00 Fair CLR 75.6 72.9 91% 75 30.08 0.0
31 23:15 S 5 10.00 Fair CLR 75.4 73 92% 74 30.08 0.0
31 22:55 Calm 10.00 Fair CLR 75.2 73.6 95% 74 30.08 0.0
31 22:35 Calm 10.00 Fair CLR 74.5 73.4 96% 30.08 0.0
31 22:15 Calm 10.00 Partly Cloudy SCT080 74.3 74.1 99% 30.08 0.0
31 21:55 Calm 10.00 Partly Cloudy SCT080 74.3 74.3 100% 30.08 0.0
Date Time (edt) Wind (mph) Vis. (mi.) Weather Sky Cond. Air Dwpt Max. Min. Relative Humidity Wind Chill (°F) Heat Index (°F) altimeter (in) sea level (mb) 1 hr 3 hr 6 hr
6 hour
Temperature (ºF) Pressure Precipitation (in)